KGOV

Details ICAO KGOV
Name GRAYLING AAF
Region United States
Timezone America/Detroit (UTC-4.0)
Plans Departing 5
Arriving 2
Stats Elevation 1,158 ft / 353 m (AMSL)
Location 44.680333° -84.728812°
Runways 2
Magnetic Variation 6.786° W
Sunrise 2018-05-25 10:02:44 UTC / 2018-05-25 06:02:44 Local
Sunset 2018-05-26 01:11:53 UTC / 2018-05-25 21:11:53 Local
Advertisement - Login to hide

Runways

ID Width Length Bearing (true) Bearing (mag) Surface Threshold Offset Overrun Length
05 150 ft / 46 m 4,995 ft / 1,523 m 46.02° 52.81° Concrete 0 ft / 0 m 1,070 ft / 326 m
14 150 ft / 46 m 5,005 ft / 1,525 m 136.18° 142.97° Asphalt 0 ft / 0 m 1,350 ft / 411 m
23 150 ft / 46 m 4,995 ft / 1,523 m 226.03° 232.82° Concrete 0 ft / 0 m 0 ft / 0 m
32 150 ft / 46 m 5,005 ft / 1,525 m 316.19° 322.98° Asphalt 300 ft / 91 m 0 ft / 0 m

Map

Weather


0- 5 10 15 20 25 30 35+ Temperature / ° C

Clouds and Precipitation
Forecast for 2018-05-26 00:00 UTC. Updated 6 hours ago

Ground ~20,000 ft ~40,000 ft Winds

METAR

KGOV 260358Z AUTO 23003KT 9SM CLR 19/14 A2976 RMK AO2 LTG DSNT NW SLP077 T01920143 $

TAF

Not found

Frequencies

Recorded 119.07 MHz AWOS 3
Ground 121.90 MHz GND
Approach 132.90 MHz MINNEAPOLIS APP/DEP
Unicom 122.80 MHz CTAF/UNICOM
Tower 126.20 MHz TWR
Warning: Do not use this data for real-world aviation or navigation. No guarantee of current accuracy is given.